Time;durP1;ratioP1;P1;durP2;ratioP2;P2;SDS_P1;SDS_P2;PMS_P1;PMS_P2;Temp;Humidity;BMP_temperature;BMP_pressure;BME280_temperature;BME280_humidity;BME280_pressure;Samples;Min_cycle;Max_cycle;Signal;HPM_P1;HPM_P2
2024/02/14 00:00:05;;;;;;;3.20;1.57;;;;;;;3.01;100.00;101368.56;5013972;28;20436;-66
2024/02/14 00:02:31;;;;;;;2.07;0.60;;;;;;;3.05;100.00;101364.38;5013708;28;20802;-66
2024/02/14 00:04:59;;;;;;;1.80;0.70;;;;;;;3.17;100.00;101369.75;5013859;28;20816;-66
2024/02/14 00:07:26;;;;;;;3.77;2.20;;;;;;;3.23;100.00;101366.97;5014547;28;20503;-66
2024/02/14 00:09:53;;;;;;;1.90;0.80;;;;;;;3.23;100.00;101372.31;5014465;28;20455;-66
2024/02/14 00:12:19;;;;;;;2.73;0.80;;;;;;;3.26;100.00;101377.19;5041967;22;20577;-68
2024/02/14 00:14:46;;;;;;;2.40;1.20;;;;;;;3.23;100.00;101366.97;5033574;28;20527;-68
2024/02/14 00:17:14;;;;;;;2.60;1.10;;;;;;;3.26;100.00;101365.69;5033790;28;20478;-67
2024/02/14 00:19:41;;;;;;;5.20;3.13;;;;;;;3.25;100.00;101366.72;5033265;28;20439;-67
2024/02/14 00:22:07;;;;;;;2.93;2.13;;;;;;;3.25;100.00;101370.22;5032800;28;20569;-67
2024/02/14 00:24:35;;;;;;;2.93;1.77;;;;;;;3.23;100.00;101368.81;5033843;28;20443;-68
2024/02/14 00:27:03;;;;;;;2.70;1.63;;;;;;;3.23;100.00;101366.97;5033574;28;20447;-68
2024/02/14 00:29:29;;;;;;;2.83;1.10;;;;;;;3.19;100.00;101365.81;5033547;28;20497;-68
2024/02/14 00:31:56;;;;;;;2.40;1.20;;;;;;;3.26;100.00;101365.69;5033395;28;20550;-68
2024/02/14 00:34:24;;;;;;;2.23;1.07;;;;;;;3.27;100.00;101365.44;5033532;28;20527;-68
2024/02/14 00:36:51;;;;;;;2.03;1.00;;;;;;;3.28;100.00;101375.13;5033264;28;20439;-68
2024/02/14 00:39:17;;;;;;;4.17;2.20;;;;;;;3.33;100.00;101369.06;5036884;28;20514;-68
2024/02/14 00:41:44;;;;;;;3.30;1.37;;;;;;;3.39;100.00;101368.13;5036483;28;20881;-68
2024/02/14 00:44:11;;;;;;;2.30;1.00;;;;;;;3.35;100.00;101374.16;5037377;28;20451;-68
2024/02/14 00:46:37;;;;;;;2.70;1.17;;;;;;;3.28;100.00;101372.44;5036798;28;20435;-68
2024/02/14 00:49:04;;;;;;;2.03;0.67;;;;;;;3.24;100.00;101367.78;5036769;28;20454;-68
2024/02/14 00:51:32;;;;;;;3.47;1.83;;;;;;;3.27;100.00;101378.81;5036970;28;20526;-68
2024/02/14 00:53:58;;;;;;;2.83;1.40;;;;;;;3.28;100.00;101374.31;5036695;28;20450;-68
2024/02/14 00:56:25;;;;;;;2.10;0.83;;;;;;;3.29;100.00;101374.06;5036667;28;20521;-68
2024/02/14 00:58:52;;;;;;;2.47;1.03;;;;;;;3.32;100.00;101374.63;5036335;28;20477;-68
2024/02/14 01:01:18;;;;;;;2.97;1.00;;;;;;;3.32;100.00;101379.97;5036463;28;20525;-68
2024/02/14 01:03:45;;;;;;;2.63;0.93;;;;;;;3.39;100.00;101378.00;5036091;28;20919;-68
2024/02/14 01:06:13;;;;;;;2.70;1.17;;;;;;;3.38;100.00;101373.72;5036448;28;20479;-67
2024/02/14 01:08:42;;;;;;;2.90;0.90;;;;;;;3.33;100.00;101370.94;5036427;28;20522;-67
2024/02/14 01:11:09;;;;;;;2.40;1.33;;;;;;;3.35;100.00;101369.63;5036332;28;20461;-68
2024/02/14 01:13:35;;;;;;;2.67;1.63;;;;;;;3.39;100.00;101369.97;5036624;28;20542;-68
2024/02/14 01:16:03;;;;;;;4.50;2.07;;;;;;;3.32;100.00;101369.28;5036746;28;20451;-67
2024/02/14 01:18:30;;;;;;;2.67;1.37;;;;;;;3.39;100.00;101369.97;5036538;28;20443;-67
2024/02/14 01:20:58;;;;;;;2.30;0.93;;;;;;;3.35;100.00;101363.47;5036169;28;20510;-67
2024/02/14 01:23:25;;;;;;;3.43;1.33;;;;;;;3.34;100.00;101367.19;5035732;28;20459;-68
2024/02/14 01:25:54;;;;;;;2.80;1.43;;;;;;;3.32;100.00;101362.09;5035793;28;20818;-68
2024/02/14 01:28:21;;;;;;;2.50;0.57;;;;;;;3.33;100.00;101360.22;5036001;28;20447;-67
2024/02/14 01:30:47;;;;;;;3.13;1.53;;;;;;;3.37;100.00;101350.66;5035966;28;20529;-67
2024/02/14 01:33:16;;;;;;;2.20;0.70;;;;;;;3.34;100.00;101346.59;5035873;28;21043;-67
2024/02/14 01:35:42;;;;;;;2.37;1.27;;;;;;;3.37;100.00;101340.78;5036295;28;20530;-68
2024/02/14 01:38:09;;;;;;;2.50;1.40;;;;;;;3.40;100.00;101347.50;5035936;28;20452;-68
2024/02/14 01:40:36;;;;;;;2.47;1.30;;;;;;;3.43;100.00;101339.81;5035716;28;20522;-68
2024/02/14 01:43:04;;;;;;;5.60;1.10;;;;;;;3.42;100.00;101338.19;5035869;28;21054;-67
2024/02/14 01:45:31;;;;;;;2.10;1.00;;;;;;;3.46;100.00;101333.19;5036322;28;20467;-67
2024/02/14 01:47:57;;;;;;;2.10;1.07;;;;;;;3.52;100.00;101334.94;5035571;28;20961;-67
2024/02/14 01:50:28;;;;;;;5.03;2.57;;;;;;;3.54;100.00;101333.66;5035947;28;20439;-67
2024/02/14 01:52:57;;;;;;;3.93;1.50;;;;;;;3.55;100.00;101337.13;5035268;28;20463;-67
2024/02/14 01:55:26;;;;;;;2.87;1.63;;;;;;;3.58;100.00;101330.47;5035573;28;20494;-67
2024/02/14 01:57:54;;;;;;;2.37;1.50;;;;;;;3.62;100.00;101337.81;5035662;28;20447;-67
2024/02/14 02:00:22;;;;;;;3.97;1.87;;;;;;;3.60;100.00;101329.22;5035471;28;20533;-66
2024/02/14 02:02:49;;;;;;;2.17;1.00;;;;;;;3.56;100.00;101329.91;5035267;28;20973;-67
2024/02/14 02:05:16;;;;;;;3.00;1.00;;;;;;;3.59;100.00;101326.78;5035368;28;20535;-67
2024/02/14 02:07:44;;;;;;;3.30;0.97;;;;;;;3.65;100.00;101331.19;5035337;28;20443;-67
2024/02/14 02:10:11;;;;;;;6.17;0.80;;;;;;;3.65;100.00;101321.28;5035697;28;20489;-67
2024/02/14 02:12:39;;;;;;;5.90;1.93;;;;;;;3.62;100.00;101316.38;5034803;28;21017;-67
2024/02/14 02:15:07;;;;;;;2.23;0.90;;;;;;;3.68;100.00;101318.13;5035232;28;20435;-67
2024/02/14 02:17:35;;;;;;;2.00;0.70;;;;;;;3.68;100.00;101315.44;5035126;28;20530;-67
2024/02/14 02:20:02;;;;;;;2.53;1.13;;;;;;;3.71;100.00;101314.97;5035088;28;20462;-67
2024/02/14 02:22:32;;;;;;;4.20;1.43;;;;;;;3.68;100.00;101315.44;5035166;28;20544;-68
2024/02/14 02:25:00;;;;;;;2.60;0.90;;;;;;;3.64;100.00;101313.47;5034996;28;20927;-68
2024/02/14 02:27:26;;;;;;;7.03;3.30;;;;;;;3.67;100.00;101313.81;5035177;28;20443;-68
2024/02/14 02:29:53;;;;;;;2.30;1.20;;;;;;;3.62;100.00;101310.22;5035257;28;20441;-68
2024/02/14 02:32:19;;;;;;;1.87;0.70;;;;;;;3.68;100.00;101314.63;5034510;28;20455;-68
2024/02/14 02:34:46;;;;;;;2.33;1.10;;;;;;;3.61;100.00;101306.72;5034807;28;20522;-68
2024/02/14 02:37:13;;;;;;;2.77;1.40;;;;;;;3.53;100.00;101304.41;5034540;28;20535;-68
2024/02/14 02:39:39;;;;;;;2.30;1.30;;;;;;;3.52;100.00;101300.09;5034494;28;20997;-68
2024/02/14 02:42:10;;;;;;;2.70;1.43;;;;;;;3.56;100.00;101300.44;5034577;28;20490;-68
2024/02/14 02:44:39;;;;;;;2.67;0.80;;;;;;;3.53;100.00;101299.88;5034795;28;20844;-68
2024/02/14 02:47:05;;;;;;;2.67;1.10;;;;;;;3.58;100.00;101299.16;5034607;28;20443;-68
2024/02/14 02:49:32;;;;;;;2.43;1.47;;;;;;;3.63;100.00;101298.44;5034262;28;20531;-68
2024/02/14 02:51:59;;;;;;;4.23;1.37;;;;;;;3.62;100.00;101297.63;5034587;28;20448;-68
2024/02/14 02:54:25;;;;;;;2.80;1.27;;;;;;;3.67;100.00;101292.38;5034518;28;21007;-68
2024/02/14 02:56:52;;;;;;;4.30;2.20;;;;;;;3.67;100.00;101284.34;5034519;28;20449;-68
2024/02/14 02:59:20;;;;;;;3.97;2.47;;;;;;;3.76;100.00;101285.63;5033784;28;20981;-68
2024/02/14 03:01:47;;;;;;;3.60;1.63;;;;;;;3.79;100.00;101285.13;5033921;28;20514;-68
2024/02/14 03:04:14;;;;;;;1.70;0.63;;;;;;;3.86;100.00;101294.91;5034240;28;20524;-68
2024/02/14 03:06:43;;;;;;;4.07;2.00;;;;;;;3.87;100.00;101281.25;5034258;28;20446;-68
2024/02/14 03:09:09;;;;;;;2.90;2.07;;;;;;;3.94;100.00;101283.78;5033898;28;20443;-68
2024/02/14 03:11:38;;;;;;;5.43;2.00;;;;;;;3.94;100.00;101281.09;5033788;28;20451;-68
2024/02/14 03:14:05;;;;;;;3.07;1.70;;;;;;;3.96;100.00;101282.50;5034117;28;20466;-68
2024/02/14 03:16:33;;;;;;;3.60;1.90;;;;;;;3.98;100.00;101292.97;5033797;28;20454;-68
2024/02/14 03:19:00;;;;;;;2.43;1.03;;;;;;;4.03;100.00;101287.72;5034039;28;20498;-68
2024/02/14 03:21:27;;;;;;;2.53;1.30;;;;;;;4.00;100.00;101282.84;5034209;28;20506;-68
2024/02/14 03:23:54;;;;;;;3.50;1.33;;;;;;;3.96;100.00;101273.66;5033954;28;20442;-68
2024/02/14 03:26:21;;;;;;;3.47;1.67;;;;;;;3.97;100.00;101270.72;5033966;28;20454;-68
2024/02/14 03:28:48;;;;;;;3.33;1.80;;;;;;;3.96;100.00;101270.97;5033936;28;20443;-68
2024/02/14 03:31:15;;;;;;;2.83;1.43;;;;;;;4.00;100.00;101269.44;5033902;28;20443;-68
2024/02/14 03:33:43;;;;;;;5.73;2.40;;;;;;;3.96;100.00;101262.91;5033598;28;20993;-68
2024/02/14 03:36:10;;;;;;;3.67;1.27;;;;;;;3.95;100.00;101261.31;5033799;28;20458;-68
2024/02/14 03:38:39;;;;;;;4.77;1.77;;;;;;;3.91;100.00;101257.47;5033810;28;20447;-68
2024/02/14 03:41:06;;;;;;;4.30;2.47;;;;;;;3.94;100.00;101251.63;5033889;28;20545;-68
2024/02/14 03:43:33;;;;;;;2.87;1.27;;;;;;;3.92;100.00;101259.09;5033819;28;20490;-68
2024/02/14 03:45:59;;;;;;;3.53;1.23;;;;;;;3.91;100.00;101260.97;5033623;28;20475;-68
2024/02/14 03:48:26;;;;;;;3.77;1.63;;;;;;;3.90;100.00;101253.16;5033549;28;20877;-68
2024/02/14 03:50:54;;;;;;;2.50;1.07;;;;;;;3.92;100.00;101246.50;5033338;28;20479;-68
2024/02/14 03:53:20;;;;;;;2.10;0.80;;;;;;;3.96;100.00;101236.13;5033750;28;20458;-68
2024/02/14 03:55:47;;;;;;;4.10;1.57;;;;;;;3.98;100.00;101247.41;5033924;28;20538;-68
2024/02/14 03:58:16;;;;;;;4.83;2.50;;;;;;;4.05;100.00;101250.75;5033744;28;20442;-67
2024/02/14 04:00:43;;;;;;;5.73;1.70;;;;;;;4.05;100.00;101245.41;5033836;28;20456;-67
2024/02/14 04:03:12;;;;;;;6.70;1.47;;;;;;;4.12;100.00;101246.06;5033275;28;20871;-67
2024/02/14 04:05:39;;;;;;;7.40;1.63;;;;;;;4.17;100.00;101245.34;5033576;28;20485;-68
2024/02/14 04:08:09;;;;;;;3.40;1.40;;;;;;;4.22;100.00;101259.66;5033882;28;20804;-68
2024/02/14 04:10:36;;;;;;;5.57;2.03;;;;;;;4.24;100.00;101254.84;5033631;28;20542;-68
2024/02/14 04:13:04;;;;;;;1.90;0.90;;;;;;;4.26;100.00;101255.41;5035632;28;20517;-68
2024/02/14 04:15:31;;;;;;;3.20;1.67;;;;;;;4.30;100.00;101261.13;5037124;28;20791;-68
2024/02/14 04:17:59;;;;;;;2.43;1.00;;;;;;;4.36;100.00;101256.66;5037413;28;21025;-68
2024/02/14 04:20:25;;;;;;;5.53;2.23;;;;;;;4.36;100.00;101262.00;5037638;28;20538;-68
2024/02/14 04:22:52;;;;;;;3.30;1.10;;;;;;;4.42;100.00;101255.66;5037429;28;20583;-68
2024/02/14 04:25:20;;;;;;;2.03;0.67;;;;;;;4.46;100.00;101256.81;5037418;28;20870;-68
2024/02/14 04:27:46;;;;;;;4.97;1.87;;;;;;;4.50;100.00;101255.25;5037277;28;20526;-68
2024/02/14 04:30:14;;;;;;;3.10;1.37;;;;;;;4.52;100.00;101256.66;5037161;28;20470;-68
2024/02/14 04:32:40;;;;;;;4.20;2.47;;;;;;;4.53;100.00;101252.91;5037013;28;20495;-68
2024/02/14 04:35:08;;;;;;;4.80;2.00;;;;;;;4.58;100.00;101257.53;5037110;28;20522;-68
2024/02/14 04:37:35;;;;;;;3.27;1.27;;;;;;;4.58;100.00;101246.00;5036743;28;20447;-68
2024/02/14 04:40:04;;;;;;;4.27;2.17;;;;;;;4.58;100.00;101257.53;5036776;28;20962;-68
2024/02/14 04:42:32;;;;;;;2.63;1.57;;;;;;;4.57;99.13;101239.03;5036809;28;21049;-68
2024/02/14 04:44:58;;;;;;;4.90;2.00;;;;;;;4.50;97.87;101245.34;5036888;28;20859;-68
2024/02/14 04:47:25;;;;;;;3.97;1.90;;;;;;;4.49;97.67;101250.97;5037344;28;20481;-68
2024/02/14 04:49:52;;;;;;;3.50;2.20;;;;;;;4.49;97.27;101248.28;5036609;28;20446;-68
2024/02/14 04:52:19;;;;;;;2.90;1.60;;;;;;;4.50;97.90;101247.22;5036638;28;20458;-68
2024/02/14 04:54:45;;;;;;;3.00;1.70;;;;;;;4.54;98.23;101243.00;5037405;28;20518;-68
2024/02/14 04:57:12;;;;;;;7.53;1.83;;;;;;;4.52;97.60;101240.56;5036380;28;20467;-69
2024/02/14 04:59:40;;;;;;;3.20;1.43;;;;;;;4.56;97.82;101235.53;5036633;28;20685;-67
2024/02/14 05:02:07;;;;;;;3.47;2.13;;;;;;;4.54;98.09;101237.63;5036674;28;20582;-67
2024/02/14 05:04:35;;;;;;;2.70;1.30;;;;;;;4.50;97.63;101223.06;5036559;28;20534;-67
2024/02/14 05:07:01;;;;;;;5.80;2.00;;;;;;;4.52;97.96;101218.28;5036819;28;20443;-67
2024/02/14 05:09:28;;;;;;;3.13;1.90;;;;;;;4.51;97.88;101211.28;5036426;28;20482;-67
2024/02/14 05:11:54;;;;;;;2.77;1.43;;;;;;;4.57;98.06;101204.16;5036002;28;20857;-67
2024/02/14 05:14:21;;;;;;;2.67;1.10;;;;;;;4.64;98.58;101208.25;5036601;28;20534;-67
2024/02/14 05:16:49;;;;;;;4.77;1.93;;;;;;;4.67;99.39;101204.28;5036172;28;20435;-67
2024/02/14 05:19:15;;;;;;;4.10;1.93;;;;;;;4.73;99.83;101205.97;5036753;28;20445;-67
2024/02/14 05:21:42;;;;;;;4.73;2.00;;;;;;;4.75;100.00;101207.38;5036717;28;20443;-67
2024/02/14 05:24:09;;;;;;;4.27;1.93;;;;;;;4.78;99.93;101203.34;5035870;28;20487;-67
2024/02/14 05:26:35;;;;;;;4.20;1.70;;;;;;;4.78;100.00;101201.50;5036229;28;20482;-67
2024/02/14 05:29:02;;;;;;;2.63;1.30;;;;;;;4.79;100.00;101188.91;5036175;28;20439;-67
2024/02/14 05:31:44;;;;;;;2.27;1.03;;;;;;;4.81;100.00;101190.25;5036707;28;20478;-67
2024/02/14 05:34:12;;;;;;;3.07;1.30;;;;;;;4.87;100.00;101182.28;5036184;28;20428;-67
2024/02/14 05:36:39;;;;;;;3.43;1.10;;;;;;;4.88;100.00;101178.56;5035974;28;20443;-67
2024/02/14 05:39:07;;;;;;;3.37;1.50;;;;;;;4.92;100.00;101179.69;5035891;28;20440;-67
2024/02/14 05:41:34;;;;;;;2.57;1.30;;;;;;;4.86;100.00;101175.28;5036075;28;20431;-67
2024/02/14 05:44:01;;;;;;;4.30;2.13;;;;;;;4.88;99.94;101178.56;5035396;28;20828;-67
2024/02/14 05:46:28;;;;;;;5.40;1.73;;;;;;;4.91;99.98;101180.72;5035775;28;20446;-67
2024/02/14 05:48:55;;;;;;;4.50;1.67;;;;;;;4.90;99.15;101173.75;5036086;28;20803;-67
2024/02/14 05:51:23;;;;;;;3.93;1.37;;;;;;;4.88;98.54;101178.56;5035316;28;20447;-68
2024/02/14 05:53:49;;;;;;;4.40;1.90;;;;;;;4.91;98.88;101173.47;5035658;28;20501;-68
2024/02/14 05:56:16;;;;;;;3.30;1.57;;;;;;;4.96;99.21;101175.44;5035917;28;20522;-68
2024/02/14 05:58:43;;;;;;;6.27;2.20;;;;;;;4.96;99.29;101168.19;5035247;28;20450;-68
2024/02/14 06:01:10;;;;;;;3.27;1.63;;;;;;;4.98;98.42;101171.44;5035493;28;20439;-68
2024/02/14 06:03:36;;;;;;;3.93;1.43;;;;;;;4.99;98.17;101169.56;5035285;28;20564;-68
2024/02/14 06:06:03;;;;;;;3.40;1.50;;;;;;;4.99;98.66;101174.94;5035138;28;20439;-68
2024/02/14 06:08:31;;;;;;;2.50;1.30;;;;;;;5.00;98.39;101163.13;5035271;28;20439;-68
2024/02/14 06:10:58;;;;;;;2.80;0.90;;;;;;;4.93;98.07;101157.16;5049966;22;20545;-63
2024/02/14 06:13:24;;;;;;;2.70;1.33;;;;;;;4.89;96.96;101164.88;5035234;28;20538;-63
2024/02/14 06:15:51;;;;;;;4.60;2.20;;;;;;;4.89;96.54;101169.44;5035593;28;20474;-63
2024/02/14 06:18:17;;;;;;;4.43;2.37;;;;;;;4.87;96.35;101171.53;5034879;28;20522;-63
2024/02/14 06:20:44;;;;;;;2.00;1.10;;;;;;;4.84;96.69;101175.56;5034948;28;21015;-63
2024/02/14 06:23:11;;;;;;;4.23;2.20;;;;;;;4.83;96.91;101179.31;5034954;28;20574;-63
2024/02/14 06:25:39;;;;;;;3.67;1.63;;;;;;;4.86;97.36;101181.47;5035068;28;20447;-63
2024/02/14 06:28:06;;;;;;;4.10;2.17;;;;;;;4.84;97.15;101172.88;5035013;28;20443;-62
2024/02/14 06:30:32;;;;;;;4.43;1.90;;;;;;;4.89;97.26;101177.50;5035243;28;20462;-62
2024/02/14 06:33:00;;;;;;;3.90;1.60;;;;;;;4.95;97.63;101168.44;5034973;28;20483;-63
2024/02/14 06:35:27;;;;;;;4.80;1.97;;;;;;;5.01;97.54;101173.63;5034148;28;20450;-63
2024/02/14 06:37:53;;;;;;;3.97;1.27;;;;;;;5.10;97.24;101173.19;5035504;28;20443;-63
2024/02/14 06:40:20;;;;;;;3.03;1.27;;;;;;;5.14;97.06;101160.91;5034932;28;21002;-63
2024/02/14 06:42:50;;;;;;;3.23;1.90;;;;;;;5.22;97.39;101160.44;5034534;28;20537;-63
2024/02/14 06:45:17;;;;;;;3.23;2.00;;;;;;;5.25;97.73;101146.50;5035155;28;20431;-62
2024/02/14 06:47:43;;;;;;;3.30;1.50;;;;;;;5.25;98.32;101144.63;5034550;28;20476;-63
2024/02/14 06:50:10;;;;;;;2.90;1.20;;;;;;;5.28;98.38;101157.56;5034509;28;20431;-63
2024/02/14 06:52:37;;;;;;;3.20;1.03;;;;;;;5.35;98.16;101153.88;5034119;28;20539;-63
2024/02/14 06:55:04;;;;;;;3.23;1.73;;;;;;;5.36;97.89;101147.44;5034800;28;20447;-63
2024/02/14 06:57:31;;;;;;;2.30;1.20;;;;;;;5.36;98.50;101148.25;5035104;28;20447;-63
2024/02/14 06:59:59;;;;;;;3.20;1.27;;;;;;;5.45;98.18;101148.63;5035500;28;20518;-63
2024/02/14 07:02:27;;;;;;;3.47;2.00;;;;;;;5.48;98.05;101140.03;5034578;28;20513;-63
2024/02/14 07:04:54;;;;;;;3.70;1.70;;;;;;;5.53;97.81;101146.31;5034732;28;20622;-63
2024/02/14 07:07:21;;;;;;;2.43;1.20;;;;;;;5.56;97.47;101143.09;5034651;28;20485;-63
2024/02/14 07:09:47;;;;;;;2.53;1.20;;;;;;;5.65;96.88;101143.44;5034274;28;20514;-63
2024/02/14 07:12:14;;;;;;;2.93;1.40;;;;;;;5.61;96.72;101152.25;5034252;28;20503;-63
2024/02/14 07:14:41;;;;;;;3.97;1.80;;;;;;;5.69;96.16;101158.00;5034298;28;20510;-63
2024/02/14 07:17:09;;;;;;;3.63;1.47;;;;;;;5.74;95.88;101163.41;5034225;28;20439;-64
2024/02/14 07:19:35;;;;;;;2.50;1.27;;;;;;;5.76;95.79;101155.13;5034059;28;20530;-63
2024/02/14 07:22:02;;;;;;;3.10;1.20;;;;;;;5.82;95.25;101164.84;5034021;28;20467;-63
2024/02/14 07:24:29;;;;;;;4.37;1.90;;;;;;;5.83;94.26;101169.94;5034199;28;20482;-63
2024/02/14 07:26:56;;;;;;;3.73;2.20;;;;;;;5.87;94.18;101181.00;5034265;28;20443;-63
2024/02/14 07:29:23;;;;;;;2.50;1.23;;;;;;;5.90;94.21;101188.56;5033875;28;20526;-63
2024/02/14 07:31:50;;;;;;;3.10;1.47;;;;;;;5.93;94.02;101184.56;5033782;28;20463;-64
2024/02/14 07:34:17;;;;;;;3.20;1.83;;;;;;;5.94;93.46;101192.41;5034040;28;20791;-63
2024/02/14 07:36:46;;;;;;;3.10;1.10;;;;;;;5.88;93.73;101195.25;5033646;28;20437;-63
2024/02/14 07:39:12;;;;;;;2.97;1.17;;;;;;;5.83;93.76;101187.97;5034309;28;20505;-63
2024/02/14 07:41:39;;;;;;;2.50;1.30;;;;;;;5.88;93.47;101193.38;5033433;28;20530;-63
2024/02/14 07:44:06;;;;;;;2.93;1.50;;;;;;;5.94;93.66;101188.91;5034175;28;20549;-63
2024/02/14 07:46:32;;;;;;;3.57;1.20;;;;;;;5.98;93.37;101188.16;5033452;28;20450;-63
2024/02/14 07:48:59;;;;;;;2.10;0.90;;;;;;;6.01;92.97;101184.94;5033804;28;20434;-63
2024/02/14 07:51:28;;;;;;;3.00;1.13;;;;;;;6.02;93.43;101185.72;5033813;28;20454;-63
2024/02/14 07:53:55;;;;;;;2.80;1.10;;;;;;;6.09;92.76;101172.91;5033693;28;20958;-63
2024/02/14 07:56:22;;;;;;;2.93;1.27;;;;;;;6.11;93.46;101165.41;5033281;28;20479;-63
2024/02/14 07:58:49;;;;;;;3.40;1.33;;;;;;;6.13;93.96;101162.44;5034225;28;20475;-64
2024/02/14 08:01:16;;;;;;;2.40;1.13;;;;;;;6.21;94.08;101160.09;5033443;28;20526;-63
2024/02/14 08:03:42;;;;;;;2.53;1.33;;;;;;;6.25;94.31;101158.50;5033079;28;20482;-63
2024/02/14 08:06:09;;;;;;;4.17;1.30;;;;;;;6.26;94.68;101160.13;5033864;28;20540;-63
2024/02/14 08:08:37;;;;;;;2.87;1.43;;;;;;;6.25;95.51;101150.44;5033669;28;20518;-63
2024/02/14 08:11:04;;;;;;;4.83;2.53;;;;;;;6.26;95.49;101157.44;5033320;28;20546;-63
2024/02/14 08:13:31;;;;;;;1.90;0.80;;;;;;;6.24;97.09;101159.59;5033686;28;20478;-63
2024/02/14 08:15:58;;;;;;;5.70;1.60;;;;;;;6.24;98.22;101156.06;5033356;28;21079;-64
2024/02/14 08:18:27;;;;;;;4.07;1.93;;;;;;;6.24;99.14;101156.91;5033367;28;20479;-63
2024/02/14 08:20:53;;;;;;;2.37;1.00;;;;;;;6.34;99.18;101155.34;5033323;28;20443;-62
2024/02/14 08:23:20;;;;;;;2.80;1.53;;;;;;;6.39;99.38;101145.41;5032981;28;21052;-63
2024/02/14 08:25:49;;;;;;;2.83;0.90;;;;;;;6.43;98.66;101149.22;5033653;28;20450;-63
2024/02/14 08:28:17;;;;;;;1.90;0.73;;;;;;;6.49;98.30;101155.44;5033309;28;20987;-63
2024/02/14 08:30:44;;;;;;;2.67;1.10;;;;;;;6.49;99.05;101144.66;5033761;28;20462;-63
2024/02/14 08:33:11;;;;;;;2.93;1.07;;;;;;;6.52;98.94;101149.53;5032917;28;20910;-63
2024/02/14 08:35:38;;;;;;;2.83;1.20;;;;;;;6.57;98.75;101147.69;5033408;28;20810;-63
2024/02/14 08:38:06;;;;;;;2.83;0.93;;;;;;;6.66;98.49;101148.00;5033467;28;20854;-63
2024/02/14 08:40:33;;;;;;;3.83;1.50;;;;;;;6.71;98.29;101139.94;5032831;28;21010;-63
2024/02/14 08:43:01;;;;;;;2.93;0.93;;;;;;;6.74;98.45;101144.81;5033136;28;20534;-63
2024/02/14 08:45:29;;;;;;;3.23;1.27;;;;;;;6.83;98.46;101154.03;5033308;28;20446;-63
2024/02/14 08:47:56;;;;;;;2.13;0.93;;;;;;;6.87;97.42;101150.81;5033106;28;20439;-63
2024/02/14 08:50:22;;;;;;;3.40;1.60;;;;;;;6.88;97.96;101141.66;5033437;28;20533;-63
2024/02/14 08:52:49;;;;;;;2.07;1.07;;;;;;;6.91;97.84;101146.53;5033060;28;20546;-63
2024/02/14 08:55:18;;;;;;;3.00;0.90;;;;;;;6.95;98.06;101151.13;5033287;28;20431;-63
2024/02/14 08:57:45;;;;;;;3.10;1.17;;;;;;;6.95;98.41;101147.59;5033221;28;20447;-63
2024/02/14 09:00:19;;;;;;;2.67;1.17;;;;;;;6.99;98.41;101140.63;5037086;28;20466;-64
2024/02/14 09:02:46;;;;;;;3.37;1.97;;;;;;;6.95;99.00;101147.59;5036949;28;20465;-63
2024/02/14 09:05:13;;;;;;;2.87;1.57;;;;;;;6.91;99.01;101154.59;5036685;28;20482;-63
2024/02/14 09:07:41;;;;;;;2.10;0.90;;;;;;;6.89;98.97;101146.78;5037292;28;20475;-63
2024/02/14 09:10:10;;;;;;;2.87;0.97;;;;;;;6.91;99.17;101151.91;5036591;28;20811;-63
2024/02/14 09:12:37;;;;;;;2.80;1.53;;;;;;;6.88;100.00;101152.44;5035939;28;20482;-63
2024/02/14 09:15:04;;;;;;;4.37;1.03;;;;;;;6.86;100.00;101151.88;5036913;28;20497;-63
2024/02/14 09:17:32;;;;;;;3.27;1.53;;;;;;;6.79;100.00;101150.22;5036422;28;20519;-63
2024/02/14 09:19:59;;;;;;;2.40;1.13;;;;;;;6.72;100.00;101156.91;5036323;28;20806;-63
2024/02/14 09:22:25;;;;;;;2.20;0.97;;;;;;;6.67;100.00;101151.50;5036379;28;20494;-63
2024/02/14 09:24:52;;;;;;;2.97;1.10;;;;;;;6.61;100.00;101150.66;5036632;28;20514;-63
2024/02/14 09:27:19;;;;;;;2.07;0.90;;;;;;;6.55;100.00;101152.53;5036147;28;20486;-63
2024/02/14 09:29:45;;;;;;;2.43;0.73;;;;;;;6.54;100.00;101152.78;5036968;28;20526;-63
2024/02/14 09:32:12;;;;;;;2.30;1.00;;;;;;;6.56;100.00;101148.75;5036245;28;20830;-63
2024/02/14 09:34:40;;;;;;;2.63;1.53;;;;;;;6.50;100.00;101144.41;5036335;28;20471;-63
2024/02/14 09:37:07;;;;;;;2.87;0.97;;;;;;;6.47;100.00;101149.50;5035978;28;20821;-63
2024/02/14 09:39:36;;;;;;;3.27;1.00;;;;;;;6.50;100.00;101146.28;5036099;28;20525;-63
2024/02/14 09:42:09;;;;;;;1.80;0.63;;;;;;;6.52;100.00;101147.66;5035945;28;20473;-63
2024/02/14 09:44:36;;;;;;;2.77;1.17;;;;;;;6.49;100.00;101152.75;5036202;28;20470;-63
2024/02/14 09:47:05;;;;;;;3.00;1.07;;;;;;;6.49;100.00;101150.06;5036348;28;20470;-63
2024/02/14 09:49:33;;;;;;;2.60;1.20;;;;;;;6.50;100.00;101147.09;5035702;28;20490;-63
2024/02/14 09:52:02;;;;;;;2.40;0.90;;;;;;;6.55;100.00;101139.06;5035535;28;20494;-63
2024/02/14 09:54:30;;;;;;;3.20;1.40;;;;;;;6.55;100.00;101140.94;5035704;28;20947;-63
2024/02/14 09:56:59;;;;;;;2.43;1.07;;;;;;;6.61;100.00;101153.38;5036035;28;20493;-63
2024/02/14 09:59:25;;;;;;;2.30;0.90;;;;;;;6.72;100.00;101146.16;5035933;28;20465;-63
2024/02/14 10:01:52;;;;;;;2.47;0.93;;;;;;;6.76;100.00;101147.25;5035549;28;20471;-63
2024/02/14 10:04:20;;;;;;;2.33;1.17;;;;;;;6.79;100.00;101146.72;5035649;28;20479;-63
2024/02/14 10:06:48;;;;;;;2.90;1.37;;;;;;;6.80;100.00;101143.75;5035470;28;20787;-63
2024/02/14 10:09:21;;;;;;;2.47;1.13;;;;;;;6.88;100.00;101141.66;5035537;28;20752;-62
2024/02/14 10:11:47;;;;;;;1.90;0.90;;;;;;;6.86;100.00;101136.50;5035062;28;20471;-62
2024/02/14 10:14:14;;;;;;;2.87;1.17;;;;;;;6.83;100.00;101145.13;5035496;28;20510;-62
2024/02/14 10:16:41;;;;;;;2.17;1.10;;;;;;;6.88;100.00;101136.28;5035495;28;20519;-63
2024/02/14 10:19:15;;;;;;;1.90;0.80;;;;;;;6.88;100.00;101128.19;5034880;28;20791;-63
2024/02/14 10:21:42;;;;;;;2.17;0.73;;;;;;;6.99;100.00;101129.84;5035599;28;20513;-62
2024/02/14 10:24:09;;;;;;;2.33;1.00;;;;;;;7.05;100.00;101136.88;5035598;28;20541;-62
2024/02/14 10:26:37;;;;;;;8.00;1.33;;;;;;;7.14;100.00;101132.59;5035192;28;20473;-62
2024/02/14 10:29:04;;;;;;;2.13;0.87;;;;;;;7.11;100.00;101135.81;5034951;28;20912;-62
2024/02/14 10:31:30;;;;;;;2.20;0.80;;;;;;;7.12;100.00;101125.84;5034771;28;20954;-62
2024/02/14 10:33:57;;;;;;;4.13;1.00;;;;;;;7.10;100.00;101133.41;5034959;28;20482;-63
2024/02/14 10:36:24;;;;;;;1.87;0.77;;;;;;;7.18;100.00;101125.63;5034875;28;20448;-64
2024/02/14 10:38:51;;;;;;;1.90;0.70;;;;;;;7.21;100.00;101122.38;5035778;28;20847;-62
2024/02/14 10:41:18;;;;;;;2.37;1.00;;;;;;;7.29;100.00;101126.44;5034795;28;20435;-64
2024/02/14 10:43:46;;;;;;;2.30;0.90;;;;;;;7.26;100.00;101127.81;5034670;28;20514;-63
2024/02/14 10:46:20;;;;;;;2.53;1.30;;;;;;;7.31;100.00;101119.72;5034921;28;20497;-63
2024/02/14 10:48:49;;;;;;;1.90;0.90;;;;;;;7.41;100.00;101123.53;5034602;28;20439;-63
2024/02/14 10:51:17;;;;;;;3.80;1.63;;;;;;;7.50;100.00;101122.72;5035238;28;20470;-63
2024/02/14 10:53:46;;;;;;;2.87;1.33;;;;;;;7.54;100.00;101121.13;5034801;28;20501;-63
2024/02/14 10:56:17;;;;;;;2.73;1.20;;;;;;;7.63;100.00;101117.91;5034591;28;20501;-63
2024/02/14 10:58:46;;;;;;;2.40;0.90;;;;;;;7.66;100.00;101120.88;5034600;28;20955;-63
2024/02/14 11:01:14;;;;;;;2.17;0.90;;;;;;;7.70;100.00;101116.56;5034297;28;20852;-64
2024/02/14 11:03:42;;;;;;;1.60;0.43;;;;;;;7.66;100.00;101120.88;5034419;28;20494;-64
2024/02/14 11:06:08;;;;;;;2.83;1.23;;;;;;;7.68;100.00;101116.00;5034592;28;21003;-64
2024/02/14 11:08:36;;;;;;;3.30;1.00;;;;;;;7.64;100.00;101114.91;5034439;28;20454;-63
2024/02/14 11:11:03;;;;;;;2.20;1.03;;;;;;;7.62;100.00;101114.41;5034419;28;20461;-63
2024/02/14 11:13:30;;;;;;;3.00;1.20;;;;;;;7.68;100.00;101113.31;5034030;28;20470;-63
2024/02/14 11:16:01;;;;;;;2.63;1.07;;;;;;;7.68;100.00;101115.19;5034175;28;20946;-63
2024/02/14 11:18:30;;;;;;;1.97;0.80;;;;;;;7.69;100.00;101106.84;5033959;28;20435;-63
2024/02/14 11:20:57;;;;;;;2.77;1.07;;;;;;;7.70;100.00;101116.56;5033722;28;20431;-63
2024/02/14 11:23:26;;;;;;;2.70;1.10;;;;;;;7.73;100.00;101109.81;5034272;28;20459;-63
2024/02/14 11:26:00;;;;;;;2.50;1.40;;;;;;;7.77;100.00;101110.88;5033656;28;21019;-63
2024/02/14 11:28:27;;;;;;;3.43;1.20;;;;;;;7.79;100.00;101109.56;5033969;28;20429;-63